Lakeside Park, Kentucky
Current Conditions -  °F | °C
As of 3:58 AM on Wednesday 26 Nov 2014 (Local Time) from KI69 Reporting Station
Clear Clear  
Wind Chill: 25°   Ceiling: Unl
Heat Index: 30°   Visibility: 10mi
Dew Point: 28°   Wind: 5mph
Humidity: 93%   Direction: 20°NNE
Pressure: 30.12"   Gusts: NA
Location:  39.0279°N, 84.5635°W
Report Text: KI69 260858Z AUTO 02004KT 10SM CLR M01/M02 A3012 RMK AO1
Loading
Personal Weather Stations






























Interactive Weather Map New forecast layout! Learn more

10-Day Weather Forecast

Advertisements
Track Severe Weather on mobile